Aries — FAC4477 — position and weather

sailwx.info

Track history (hours):
 
Tides and Currents Weather Stations Pressure Air Temp Water Temp Dewpoint Dewpoint Depression Visibility Wind Speed Wind Dir Waves Ship Positions

Aries

Last reported at 2017-Sep-04 14:03 UTC. Time now 2017-Sep-24 03:34 UTC.
Position N 48°40' W 002°49'.
Warning: this ship's position is 19 days out of date.

Length 14 m.

Type: Sailing vessel. MMSI: 227436760.

Date/timePositionNaut miles runAvg speedWind from/ knotsBaromVisibWave heightAir tempDewpointWater temp
2017-Sep-04 14:03N 48°40' W 002°49'0 7.7
2017-Sep-04 14:00N 48°40' W 002°49'5 7.4
2017-Sep-04 13:20N 48°44' W 002°53'3 7.8
2017-Sep-04 13:01N 48°46' W 002°55'2 4.1
2017-Sep-04 12:30N 48°49' W 002°55'  
2017-Aug-27 15:37N 48°35' W 004°46'1 8.0
2017-Aug-27 15:27N 48°34' W 004°47'3 7.6
2017-Aug-27 15:00N 48°31' W 004°49'4 6.7
2017-Aug-27 14:22N 48°27' W 004°49'3 6.8
2017-Aug-27 13:58N 48°24' W 004°49'6 6.0
2017-Aug-27 12:58N 48°19' W 004°45'4 7.6
2017-Aug-27 12:30N 48°18' W 004°39'2 0.1
2017-Aug-25 15:59N 48°17' W 004°36'2 3.6
2017-Aug-25 15:30N 48°16' W 004°38'2 3.8
2017-Aug-25 15:00N 48°14' W 004°38'  
Track history (hours):
 
Tides and Currents Weather Stations Pressure Air Temp Water Temp Dewpoint Dewpoint Depression Visibility Wind Speed Wind Dir Waves Ship Positions

Aries

Last reported at 2017-Sep-04 14:03 UTC. Time now 2017-Sep-24 03:34 UTC.
Position N 48°40' W 002°49'.
Warning: this ship's position is 19 days out of date.

Length 14 m.

Type: Sailing vessel. MMSI: 227436760.

Date/timePositionNaut miles runAvg speedWind from/ knotsBaromVisibWave heightAir tempDewpointWater temp
2017-Sep-04 14:03N 48°40' W 002°49'0 7.7
2017-Sep-04 14:00N 48°40' W 002°49'5 7.4
2017-Sep-04 13:20N 48°44' W 002°53'3 7.8
2017-Sep-04 13:01N 48°46' W 002°55'2 4.1
2017-Sep-04 12:30N 48°49' W 002°55'  
2017-Aug-27 15:37N 48°35' W 004°46'1 8.0
2017-Aug-27 15:27N 48°34' W 004°47'3 7.6
2017-Aug-27 15:00N 48°31' W 004°49'4 6.7
2017-Aug-27 14:22N 48°27' W 004°49'3 6.8
2017-Aug-27 13:58N 48°24' W 004°49'6 6.0
2017-Aug-27 12:58N 48°19' W 004°45'4 7.6
2017-Aug-27 12:30N 48°18' W 004°39'2 0.1
2017-Aug-25 15:59N 48°17' W 004°36'2 3.6
2017-Aug-25 15:30N 48°16' W 004°38'2 3.8
2017-Aug-25 15:00N 48°14' W 004°38'  

Dump ship's entire track history